Time,TemperatureF,DewpointF,PressureIn,WindDirection,WindDirectionDegrees,WindSpeedMPH,WindSpeedGustMPH,Humidity,HourlyPrecipIn,Conditions,Clouds,dailyrainin,SoftwareType,DateUTC
2013-01-30 00:01:00,-4.0,-7.0,-100.00,ESE,119,3.0,4.0,88,0.00,,,-99.99,,2013-01-30 07:01:00,
2013-01-30 00:11:00,-4.0,-7.0,-100.00,SE,126,4.0,6.0,87,0.00,,,-99.99,,2013-01-30 07:11:00,
2013-01-30 00:21:00,-4.0,-6.0,-100.00,SE,130,6.0,7.0,88,0.00,,,-99.99,,2013-01-30 07:21:00,
2013-01-30 00:31:00,-4.0,-7.0,-100.00,ESE,123,6.0,8.0,88,0.00,,,-99.99,,2013-01-30 07:31:00,
2013-01-30 00:42:00,-999.0,-99.9,-100.00,SE,127,7.0,9.0,-999,-99.99,,,-99.99,,2013-01-30 07:42:00,
2013-01-30 00:52:00,-3.0,-5.0,-100.00,SE,130,8.0,9.0,89,0.00,,,-99.99,,2013-01-30 07:52:00,
2013-01-30 01:01:00,-2.0,-4.0,-100.00,SE,133,7.0,9.0,89,0.00,,,-99.99,,2013-01-30 08:01:00,
2013-01-30 01:11:00,-1.0,-4.0,-100.00,SE,133,8.0,9.0,89,-99.99,,,-99.99,,2013-01-30 08:11:00,
2013-01-30 01:21:00,-1.0,-3.0,-100.00,SE,140,8.0,9.0,89,0.00,,,-99.99,,2013-01-30 08:21:00,
2013-01-30 01:31:00,0.0,-3.0,-100.00,SE,138,8.0,9.0,90,0.00,,,-99.99,,2013-01-30 08:31:00,
2013-01-30 01:41:00,0.0,-2.0,-100.00,SE,137,8.0,9.0,90,0.00,,,-99.99,,2013-01-30 08:41:00,
2013-01-30 01:52:00,1.0,-2.0,-100.00,SE,138,9.0,11.0,90,0.00,,,-99.99,,2013-01-30 08:52:00,
2013-01-30 02:01:00,1.0,-1.0,-100.00,SE,137,9.0,10.0,90,0.00,,,-99.99,,2013-01-30 09:01:00,
2013-01-30 02:11:00,1.0,-1.0,-100.00,SE,136,8.0,10.0,90,0.00,,,-99.99,,2013-01-30 09:11:00,
2013-01-30 02:22:00,-999.0,-99.9,-100.00,SE,136,7.0,9.0,-999,-99.99,,,-99.99,,2013-01-30 09:22:00,
2013-01-30 02:31:00,2.0,-1.0,-100.00,SE,134,7.0,9.0,91,0.00,,,-99.99,,2013-01-30 09:31:00,
2013-01-30 02:41:00,2.0,0.0,-100.00,SE,136,7.0,7.0,91,0.00,,,-99.99,,2013-01-30 09:41:00,
2013-01-30 02:51:00,2.0,0.0,-100.00,SE,143,9.0,11.0,91,0.00,,,-99.99,,2013-01-30 09:51:00,
2013-01-30 03:01:00,2.0,0.0,-100.00,SE,145,9.0,11.0,90,0.00,,,-99.99,,2013-01-30 10:01:00,
2013-01-30 03:11:00,2.0,0.0,-100.00,SE,145,9.0,11.0,91,0.00,,,-99.99,,2013-01-30 10:11:00,
2013-01-30 03:21:00,2.0,0.0,-100.00,SSE,152,9.0,11.0,90,0.00,,,-99.99,,2013-01-30 10:21:00,
2013-01-30 03:31:00,2.0,0.0,-100.00,SSE,150,9.0,10.0,90,0.00,,,-99.99,,2013-01-30 10:31:00,
2013-01-30 03:41:00,2.0,0.0,-100.00,SSE,147,7.0,9.0,91,0.00,,,-99.99,,2013-01-30 10:41:00,
2013-01-30 03:51:00,3.0,1.0,-100.00,SE,145,7.0,9.0,91,0.00,,,-99.99,,2013-01-30 10:51:00,
2013-01-30 04:01:00,2.0,0.0,-100.00,SSE,162,7.0,8.0,90,0.00,,,-99.99,,2013-01-30 11:01:00,
2013-01-30 04:11:00,3.0,1.0,-100.00,South,171,7.0,7.0,91,0.00,,,-99.99,,2013-01-30 11:11:00,
2013-01-30 04:21:00,3.0,1.0,-100.00,South,172,6.0,7.0,91,0.00,,,-99.99,,2013-01-30 11:21:00,
2013-01-30 04:41:00,4.0,2.0,-100.00,SSE,167,6.0,7.0,91,0.00,,,-99.99,,2013-01-30 11:41:00,
2013-01-30 04:51:00,4.0,2.0,-100.00,SE,144,4.0,5.0,92,0.00,,,-99.99,,2013-01-30 11:51:00,
2013-01-30 05:01:00,4.0,2.0,-100.00,SE,143,3.0,4.0,92,0.00,,,-99.99,,2013-01-30 12:01:00,
2013-01-30 05:32:00,6.0,4.0,-100.00,SW,233,1.0,1.0,92,0.00,,,-99.99,,2013-01-30 12:32:00,
2013-01-30 05:42:00,6.0,4.0,-100.00,WSW,237,0.0,1.0,93,0.00,,,-99.99,,2013-01-30 12:42:00,
2013-01-30 06:02:00,7.0,5.0,-100.00,ESE,123,1.0,2.0,92,0.00,,,-99.99,,2013-01-30 13:02:00,
2013-01-30 06:12:00,7.0,5.0,-100.00,SE,138,1.0,2.0,93,0.00,,,-99.99,,2013-01-30 13:12:00,
2013-01-30 06:22:00,7.0,5.0,-100.00,SSE,147,3.0,4.0,93,0.00,,,-99.99,,2013-01-30 13:22:00,
2013-01-30 06:31:00,7.0,5.0,-100.00,SSE,147,3.0,4.0,92,0.00,,,-99.99,,2013-01-30 13:31:00,
2013-01-30 06:42:00,7.0,5.0,-100.00,SE,136,4.0,6.0,93,0.00,,,-99.99,,2013-01-30 13:42:00,
2013-01-30 06:52:00,7.0,5.0,-100.00,SSE,155,4.0,6.0,93,0.01,,,-99.99,,2013-01-30 13:52:00,
2013-01-30 07:01:00,7.0,5.0,-100.00,SSE,152,4.0,6.0,93,0.01,,,-99.99,,2013-01-30 14:01:00,
2013-01-30 07:11:00,7.0,5.0,-100.00,SSE,158,4.0,5.0,93,0.01,,,-99.99,,2013-01-30 14:11:00,
2013-01-30 07:21:00,7.0,6.0,-100.00,South,171,2.0,3.0,93,0.01,,,-99.99,,2013-01-30 14:21:00,
2013-01-30 07:31:00,8.0,7.0,-100.00,SSW,208,1.0,2.0,94,0.00,,,-99.99,,2013-01-30 14:31:00,
2013-01-30 07:41:00,9.0,8.0,-100.00,WSW,244,1.0,2.0,95,0.00,,,-99.99,,2013-01-30 14:41:00,
2013-01-30 07:52:00,14.0,14.0,-100.00,WNW,292,4.0,7.0,100,0.00,,,-99.99,,2013-01-30 14:52:00,
2013-01-30 08:02:00,17.0,17.0,-100.00,WNW,301,7.0,9.0,98,0.01,,,-99.99,,2013-01-30 15:02:00,
2013-01-30 08:11:00,17.0,17.0,-100.00,WNW,301,7.0,9.0,98,0.01,,,-99.99,,2013-01-30 15:11:00,
2013-01-30 08:22:00,18.0,18.0,-100.00,NW,304,7.0,9.0,98,0.03,,,-99.99,,2013-01-30 15:22:00,
2013-01-30 08:31:00,19.0,18.0,-100.00,WNW,302,7.0,9.0,98,0.04,,,-99.99,,2013-01-30 15:31:00,
2013-01-30 08:42:00,19.0,19.0,-100.00,NW,304,7.0,9.0,98,0.01,,,-99.99,,2013-01-30 15:42:00,
2013-01-30 08:52:00,19.0,19.0,-100.00,NW,306,7.0,9.0,99,0.01,,,-99.99,,2013-01-30 15:52:00,
2013-01-30 09:02:00,20.0,20.0,-100.00,NW,312,7.0,9.0,99,0.01,,,-99.99,,2013-01-30 16:02:00,
2013-01-30 09:11:00,20.0,20.0,-100.00,NW,312,7.0,10.0,99,0.01,,,-99.99,,2013-01-30 16:11:00,
2013-01-30 09:22:00,21.0,21.0,-100.00,WNW,301,7.0,9.0,99,0.03,,,-99.99,,2013-01-30 16:22:00,
2013-01-30 09:31:00,22.0,22.0,-100.00,WNW,295,8.0,11.0,100,0.01,,,-99.99,,2013-01-30 16:31:00,
2013-01-30 09:41:00,22.0,22.0,-100.00,WNW,289,10.0,12.0,100,0.03,,,-99.99,,2013-01-30 16:41:00,
2013-01-30 09:51:00,23.0,23.0,-100.00,WNW,291,10.0,12.0,100,0.00,,,-99.99,,2013-01-30 16:51:00,
2013-01-30 10:01:00,24.0,24.0,-100.00,WNW,295,11.0,12.0,100,0.01,,,-99.99,,2013-01-30 17:01:00,
2013-01-30 10:11:00,24.0,24.0,-100.00,WNW,298,11.0,12.0,100,0.00,,,-99.99,,2013-01-30 17:11:00,
2013-01-30 10:22:00,25.0,25.0,-100.00,WNW,296,13.0,16.0,100,0.04,,,-99.99,,2013-01-30 17:22:00,
2013-01-30 10:31:00,25.0,25.0,-100.00,WNW,294,12.0,16.0,100,0.00,,,-99.99,,2013-01-30 17:31:00,
2013-01-30 10:41:00,26.0,26.0,-100.00,WNW,292,14.0,19.0,100,0.00,,,-99.99,,2013-01-30 17:41:00,
2013-01-30 10:52:00,27.0,26.0,-100.00,WNW,289,17.0,26.0,99,0.03,,,-99.99,,2013-01-30 17:52:00,
2013-01-30 11:01:00,28.0,27.0,-100.00,WNW,289,21.0,30.0,96,0.00,,,-99.99,,2013-01-30 18:01:00,
2013-01-30 11:11:00,28.0,27.0,-100.00,WNW,294,27.0,32.0,95,0.00,,,-99.99,,2013-01-30 18:11:00,
2013-01-30 11:21:00,28.0,26.0,-100.00,NW,306,21.0,28.0,92,0.00,,,-99.99,,2013-01-30 18:21:00,
2013-01-30 11:32:00,29.0,26.0,-100.00,WNW,301,19.0,24.0,87,0.00,,,-99.99,,2013-01-30 18:32:00,
2013-01-30 11:42:00,29.0,26.0,-100.00,NW,305,17.0,22.0,86,0.00,,,-99.99,,2013-01-30 18:42:00,
2013-01-30 11:51:00,30.0,25.0,-100.00,NW,305,17.0,20.0,83,0.00,,,-99.99,,2013-01-30 18:51:00,
2013-01-30 12:01:00,30.0,25.0,-100.00,WNW,299,19.0,22.0,79,0.00,,,-99.99,,2013-01-30 19:01:00,
2013-01-30 12:11:00,31.0,24.0,-100.00,WNW,298,20.0,25.0,77,0.00,,,-99.99,,2013-01-30 19:11:00,
2013-01-30 12:21:00,32.0,25.0,-100.00,WNW,291,19.0,23.0,76,0.00,,,-99.99,,2013-01-30 19:21:00,
2013-01-30 12:31:00,32.0,25.0,-100.00,WNW,287,22.0,27.0,76,0.00,,,-99.99,,2013-01-30 19:31:00,
2013-01-30 12:42:00,32.0,25.0,-100.00,WNW,285,21.0,25.0,75,0.00,,,-99.99,,2013-01-30 19:42:00,
2013-01-30 12:52:00,32.0,25.0,-100.00,WNW,282,19.0,26.0,76,0.00,,,-99.99,,2013-01-30 19:52:00,
2013-01-30 13:02:00,32.0,25.0,-100.00,WNW,284,21.0,24.0,75,0.00,,,-99.99,,2013-01-30 20:02:00,
2013-01-30 13:11:00,32.0,24.0,-100.00,WNW,282,19.0,24.0,74,0.00,,,-99.99,,2013-01-30 20:11:00,
2013-01-30 13:21:00,32.0,24.0,-100.00,WNW,282,21.0,26.0,73,0.00,,,-99.99,,2013-01-30 20:21:00,
2013-01-30 13:32:00,32.0,24.0,-100.00,WNW,282,20.0,24.0,70,0.00,,,-99.99,,2013-01-30 20:32:00,
2013-01-30 13:41:00,32.0,25.0,-100.00,WNW,285,22.0,30.0,73,0.00,,,-99.99,,2013-01-30 20:41:00,
2013-01-30 13:52:00,32.0,25.0,-100.00,WNW,288,24.0,35.0,75,0.00,,,-99.99,,2013-01-30 20:52:00,
2013-01-30 14:02:00,32.0,25.0,-100.00,WNW,284,24.0,31.0,75,0.00,,,-99.99,,2013-01-30 21:02:00,
2013-01-30 14:11:00,32.0,25.0,-100.00,WNW,282,23.0,31.0,75,0.00,,,-99.99,,2013-01-30 21:11:00,
2013-01-30 14:21:00,32.0,26.0,-100.00,West,278,23.0,33.0,80,0.01,,,-99.99,,2013-01-30 21:21:00,
2013-01-30 14:31:00,32.0,26.0,-100.00,WNW,282,20.0,27.0,80,0.00,,,-99.99,,2013-01-30 21:31:00,
2013-01-30 14:41:00,31.0,27.0,-100.00,WNW,285,24.0,31.0,83,0.00,,,-99.99,,2013-01-30 21:41:00,
2013-01-30 14:52:00,31.0,28.0,-100.00,WNW,285,23.0,31.0,86,0.03,,,-99.99,,2013-01-30 21:52:00,
2013-01-30 15:01:00,30.0,29.0,-100.00,WNW,282,23.0,29.0,95,0.06,,,-99.99,,2013-01-30 22:01:00,
2013-01-30 15:11:00,30.0,29.0,-100.00,WNW,284,24.0,30.0,97,0.07,,,-99.99,,2013-01-30 22:11:00,
2013-01-30 15:21:00,30.0,29.0,-100.00,WNW,284,24.0,30.0,99,-99.99,,,-99.99,,2013-01-30 22:21:00,
2013-01-30 15:31:00,29.0,29.0,-100.00,WNW,284,22.0,27.0,100,0.13,,,-99.99,,2013-01-30 22:31:00,
2013-01-30 15:41:00,29.0,29.0,-100.00,WNW,284,23.0,29.0,100,0.01,,,-99.99,,2013-01-30 22:41:00,
2013-01-30 15:52:00,29.0,29.0,-100.00,WNW,282,21.0,26.0,100,0.01,,,-99.99,,2013-01-30 22:52:00,
2013-01-30 16:01:00,29.0,29.0,-100.00,WNW,285,20.0,24.0,100,0.00,,,-99.99,,2013-01-30 23:01:00,
2013-01-30 16:11:00,29.0,29.0,-100.00,WNW,284,19.0,23.0,100,0.00,,,-99.99,,2013-01-30 23:11:00,
2013-01-30 16:21:00,30.0,30.0,-100.00,WNW,282,20.0,26.0,100,0.01,,,-99.99,,2013-01-30 23:21:00,
2013-01-30 16:32:00,30.0,30.0,-100.00,WNW,284,21.0,26.0,100,0.03,,,-99.99,,2013-01-30 23:32:00,
2013-01-30 16:42:00,26.0,25.0,-100.00,NW,316,21.0,34.0,98,0.08,,,-99.99,,2013-01-30 23:42:00,
2013-01-30 16:52:00,25.0,25.0,-100.00,NW,325,20.0,30.0,99,0.17,,,-99.99,,2013-01-30 23:52:00,
2013-01-30 17:02:00,-999.0,-99.9,-100.00,NW,326,20.0,27.0,-999,-99.99,,,-99.99,,2013-01-31 00:02:00,
2013-01-30 17:11:00,25.0,24.0,-100.00,NW,323,24.0,34.0,97,0.01,,,-99.99,,2013-01-31 00:11:00,
2013-01-30 17:21:00,25.0,24.0,-100.00,NW,323,23.0,34.0,98,0.04,,,-99.99,,2013-01-31 00:21:00,
2013-01-30 17:31:00,24.0,24.0,-100.00,NW,312,24.0,30.0,98,0.10,,,-99.99,,2013-01-31 00:31:00,
2013-01-30 17:41:00,24.0,24.0,-100.00,NW,306,21.0,26.0,99,0.10,,,-99.99,,2013-01-31 00:41:00,
2013-01-30 17:52:00,24.0,24.0,-100.00,WNW,296,19.0,24.0,100,0.07,,,-99.99,,2013-01-31 00:52:00,
2013-01-30 18:01:00,24.0,24.0,-100.00,WNW,292,22.0,30.0,99,0.08,,,-99.99,,2013-01-31 01:01:00,
2013-01-30 18:11:00,24.0,24.0,-100.00,WNW,294,26.0,34.0,100,0.06,,,-99.99,,2013-01-31 01:11:00,
2013-01-30 18:21:00,24.0,24.0,-100.00,WNW,288,19.0,26.0,100,0.06,,,-99.99,,2013-01-31 01:21:00,
2013-01-30 18:31:00,24.0,23.0,-100.00,WNW,291,26.0,30.0,99,0.11,,,-99.99,,2013-01-31 01:31:00,
2013-01-30 18:41:00,24.0,24.0,-100.00,WNW,299,23.0,29.0,100,0.10,,,-99.99,,2013-01-31 01:41:00,
2013-01-30 18:52:00,24.0,24.0,-100.00,WNW,296,21.0,26.0,100,0.06,,,-99.99,,2013-01-31 01:52:00,
2013-01-30 19:01:00,23.0,23.0,-100.00,WNW,287,20.0,26.0,100,0.14,,,-99.99,,2013-01-31 02:01:00,
2013-01-30 19:11:00,23.0,23.0,-100.00,WNW,285,21.0,26.0,100,0.11,,,-99.99,,2013-01-31 02:11:00,
2013-01-30 19:21:00,23.0,23.0,-100.00,WNW,285,19.0,26.0,100,0.04,,,-99.99,,2013-01-31 02:21:00,
2013-01-30 19:31:00,23.0,23.0,-100.00,WNW,284,17.0,21.0,100,0.08,,,-99.99,,2013-01-31 02:31:00,
2013-01-30 19:41:00,23.0,23.0,-100.00,WNW,284,17.0,21.0,100,0.08,,,-99.99,,2013-01-31 02:41:00,
2013-01-30 19:51:00,23.0,23.0,-100.00,WNW,284,17.0,21.0,100,0.08,,,-99.99,,2013-01-31 02:51:00,
2013-01-30 20:01:00,23.0,23.0,-100.00,West,274,20.0,25.0,100,0.07,,,-99.99,,2013-01-31 03:01:00,
2013-01-30 20:11:00,23.0,23.0,-100.00,West,277,21.0,26.0,100,0.16,,,-99.99,,2013-01-31 03:11:00,
2013-01-30 20:21:00,23.0,23.0,-100.00,West,278,25.0,29.0,100,0.13,,,-99.99,,2013-01-31 03:21:00,
2013-01-30 20:31:00,23.0,23.0,-100.00,WNW,288,22.0,29.0,100,0.13,,,-99.99,,2013-01-31 03:31:00,
2013-01-30 20:41:00,23.0,23.0,-100.00,WNW,289,20.0,24.0,100,0.07,,,-99.99,,2013-01-31 03:41:00,
2013-01-30 20:51:00,23.0,23.0,-100.00,WNW,285,22.0,29.0,99,0.04,,,-99.99,,2013-01-31 03:51:00,
2013-01-30 21:01:00,23.0,22.0,-100.00,WNW,294,28.0,34.0,98,0.01,,,-99.99,,2013-01-31 04:01:00,
2013-01-30 21:11:00,22.0,22.0,-100.00,WNW,302,28.0,35.0,98,0.03,,,-99.99,,2013-01-31 04:11:00,
2013-01-30 21:21:00,22.0,21.0,-100.00,NW,312,22.0,26.0,98,0.07,,,-99.99,,2013-01-31 04:21:00,
2013-01-30 21:31:00,22.0,22.0,-100.00,NW,311,19.0,22.0,98,0.07,,,-99.99,,2013-01-31 04:31:00,
2013-01-30 21:41:00,22.0,22.0,-100.00,NW,308,17.0,22.0,98,0.08,,,-99.99,,2013-01-31 04:41:00,
2013-01-30 21:51:00,22.0,22.0,-100.00,WNW,302,17.0,22.0,99,0.11,,,-99.99,,2013-01-31 04:51:00,
2013-01-30 22:01:00,22.0,22.0,-100.00,WNW,294,14.0,17.0,100,0.10,,,-99.99,,2013-01-31 05:01:00,
2013-01-30 22:11:00,22.0,22.0,-100.00,WNW,294,16.0,19.0,100,0.04,,,-99.99,,2013-01-31 05:11:00,
2013-01-30 22:21:00,23.0,23.0,-100.00,WNW,296,17.0,21.0,100,0.10,,,-99.99,,2013-01-31 05:21:00,
2013-01-30 22:31:00,23.0,23.0,-100.00,WNW,296,17.0,21.0,100,0.10,,,-99.99,,2013-01-31 05:31:00,
2013-01-30 22:41:00,23.0,23.0,-100.00,WNW,294,17.0,21.0,100,0.13,,,-99.99,,2013-01-31 05:41:00,
2013-01-30 22:51:00,23.0,23.0,-100.00,WNW,294,17.0,21.0,100,0.13,,,-99.99,,2013-01-31 05:51:00,
2013-01-30 23:01:00,23.0,23.0,-100.00,WNW,294,17.0,21.0,100,0.13,,,-99.99,,2013-01-31 06:01:00,
2013-01-30 23:10:00,23.0,23.0,-100.00,WNW,294,17.0,21.0,100,0.13,,,-99.99,,2013-01-31 06:10:00,